createdAt,value
2023-03-05T09:35:14.036Z,438.00
2023-03-05T09:36:13.933Z,438.00
2023-03-05T09:37:14.046Z,439.00
2023-03-05T09:38:13.962Z,440.00
2023-03-05T09:39:13.966Z,440.00
2023-03-05T09:40:13.882Z,439.00
2023-03-05T09:41:13.885Z,441.00
2023-03-05T09:42:13.907Z,440.00
2023-03-05T09:43:13.915Z,439.00
2023-03-05T09:44:13.869Z,437.00
2023-03-05T09:45:13.821Z,438.00
2023-03-05T09:46:13.966Z,440.00
2023-03-05T09:47:14.750Z,440.00
2023-03-05T09:48:13.770Z,439.00
2023-03-05T09:49:13.789Z,439.00
2023-03-05T09:50:13.802Z,438.00
2023-03-05T09:51:13.742Z,440.00
2023-03-05T09:52:13.750Z,440.00
2023-03-05T09:53:13.783Z,441.00
2023-03-05T09:54:13.704Z,442.00
2023-03-05T09:55:13.695Z,444.00
2023-03-05T09:56:13.677Z,443.00
2023-03-05T09:57:13.699Z,440.00
2023-03-05T09:58:13.686Z,441.00
2023-03-05T09:59:13.674Z,440.00
2023-03-05T10:00:13.672Z,439.00
2023-03-05T10:01:13.646Z,438.00
2023-03-05T10:02:13.626Z,438.00
2023-03-05T10:03:13.707Z,438.00
2023-03-05T10:04:13.674Z,437.00
2023-03-05T10:15:03.548Z,443.00
2023-03-05T10:16:03.827Z,444.00
2023-03-05T10:17:03.558Z,443.00
2023-03-05T10:18:03.457Z,443.00
2023-03-05T10:19:03.520Z,442.00
2023-03-05T10:20:03.494Z,441.00
2023-03-05T10:21:03.555Z,440.00
2023-03-05T10:22:03.428Z,440.00
2023-03-05T10:23:03.440Z,440.00
2023-03-05T10:24:03.413Z,439.00
2023-03-05T10:25:03.377Z,437.00
2023-03-05T10:26:03.357Z,437.00
2023-03-05T10:27:03.366Z,440.00
2023-03-05T10:28:03.335Z,439.00
2023-03-05T10:29:03.377Z,437.00
2023-03-05T10:30:03.290Z,436.00
2023-03-05T10:31:03.317Z,437.00
2023-03-05T10:32:03.389Z,435.00
2023-03-05T10:33:03.317Z,433.00
2023-03-05T10:34:03.253Z,432.00
2023-03-05T10:35:03.236Z,432.00
2023-03-05T10:36:03.223Z,432.00
2023-03-05T10:37:03.211Z,430.00
2023-03-05T10:38:03.295Z,429.00
2023-03-05T10:39:03.189Z,430.00
2023-03-05T10:40:03.139Z,428.00
2023-03-05T10:41:03.183Z,429.00
2023-03-05T10:42:03.183Z,430.00
2023-03-05T10:43:03.189Z,432.00
2023-03-05T10:44:03.160Z,434.00
2023-03-05T10:45:03.107Z,434.00
2023-03-05T10:46:03.288Z,433.00
2023-03-05T10:47:03.179Z,432.00
2023-03-05T10:48:03.148Z,431.00
2023-03-05T10:49:03.112Z,432.00
2023-03-05T10:50:03.120Z,432.00
2023-03-05T10:51:03.023Z,431.00
2023-03-05T10:52:03.042Z,433.00
2023-03-05T10:53:02.998Z,435.00
2023-03-05T10:54:03.008Z,436.00
2023-03-05T10:55:03.181Z,436.00
2023-03-05T10:56:03.175Z,437.00
2023-03-05T10:57:03.969Z,437.00
2023-03-05T10:58:02.966Z,437.00
2023-03-05T10:59:07.058Z,436.00
2023-03-05T11:00:02.929Z,436.00
2023-03-05T11:01:02.921Z,437.00
2023-03-05T11:02:02.978Z,439.00
2023-03-05T11:03:02.912Z,438.00
2023-03-05T11:04:02.890Z,437.00
2023-03-05T11:05:05.117Z,436.00
2023-03-05T11:06:02.839Z,435.00
2023-03-05T11:07:02.830Z,436.00
2023-03-05T11:08:02.819Z,436.00
2023-03-05T11:09:02.815Z,436.00
2023-03-05T11:10:02.846Z,438.00
2023-03-05T11:11:03.985Z,438.00
2023-03-05T11:12:06.043Z,437.00
2023-03-05T11:13:02.776Z,438.00
2023-03-05T11:14:02.753Z,440.00
2023-03-05T11:15:02.740Z,442.00
2023-03-05T11:16:02.792Z,440.00
2023-03-05T11:17:02.718Z,441.00
2023-03-05T11:18:02.733Z,442.00
2023-03-05T11:19:02.663Z,441.00
2023-03-05T11:20:02.698Z,441.00
2023-03-05T11:21:03.432Z,443.00
2023-03-05T11:22:02.673Z,445.00
2023-03-05T11:23:02.709Z,443.00
2023-03-05T11:24:02.712Z,443.00
2023-03-05T11:25:02.645Z,445.00
2023-03-05T11:26:02.587Z,443.00
2023-03-05T11:27:02.546Z,445.00
2023-03-05T11:28:02.570Z,445.00
2023-03-05T11:29:02.612Z,449.00
2023-03-05T11:30:02.507Z,449.00
2023-03-05T11:31:02.581Z,448.00
2023-03-05T11:32:02.534Z,448.00
2023-03-05T11:33:02.621Z,448.00
2023-03-05T11:34:03.447Z,447.00
2023-03-05T11:35:02.510Z,447.00
2023-03-05T11:36:02.424Z,446.00
2023-03-05T11:37:02.412Z,448.00
2023-03-05T11:38:02.484Z,449.00
2023-03-05T11:39:02.510Z,448.00
2023-03-05T11:40:02.403Z,447.00
2023-03-05T11:41:02.366Z,447.00
2023-03-05T11:42:02.320Z,448.00
2023-03-05T11:43:02.346Z,451.00
2023-03-05T11:44:02.362Z,452.00
2023-03-05T11:45:02.322Z,452.00
2023-03-05T11:46:02.437Z,451.00
2023-03-05T11:47:02.284Z,450.00
2023-03-05T11:48:02.292Z,448.00
2023-03-05T11:49:02.249Z,445.00
2023-03-05T11:50:02.373Z,446.00
2023-03-05T11:51:02.212Z,446.00
2023-03-05T11:52:02.241Z,445.00
2023-03-05T11:53:02.216Z,446.00
2023-03-05T11:54:02.178Z,446.00
2023-03-05T11:55:02.141Z,446.00
2023-03-05T11:56:02.129Z,445.00
2023-03-05T11:57:02.141Z,447.00
2023-03-05T11:58:02.149Z,447.00
2023-03-05T11:59:02.124Z,448.00
2023-03-05T12:00:02.099Z,447.00
2023-03-05T12:01:02.116Z,446.00
2023-03-05T12:02:02.093Z,449.00
2023-03-05T12:03:02.158Z,447.00
2023-03-05T12:04:02.165Z,446.00
2023-03-05T12:05:02.031Z,444.00
2023-03-05T12:06:02.105Z,444.00
2023-03-05T12:07:01.964Z,443.00
2023-03-05T12:08:02.076Z,444.00
2023-03-05T12:09:02.050Z,445.00
2023-03-05T12:10:01.941Z,444.00
2023-03-05T12:11:01.990Z,442.00
2023-03-05T12:12:01.944Z,442.00
2023-03-05T12:13:01.949Z,442.00
2023-03-05T12:14:01.948Z,442.00
2023-03-05T12:15:01.880Z,444.00
2023-03-05T12:16:02.253Z,445.00
2023-03-05T12:17:01.904Z,446.00
2023-03-05T12:18:01.887Z,445.00
2023-03-05T12:19:01.801Z,446.00
2023-03-05T12:20:01.842Z,445.00
2023-03-05T12:21:01.856Z,443.00
2023-03-05T12:22:01.811Z,443.00
2023-03-05T12:23:01.758Z,445.00
2023-03-05T12:24:01.801Z,445.00
2023-03-05T12:25:02.002Z,445.00
2023-03-05T12:26:01.707Z,445.00
2023-03-05T12:27:01.766Z,445.00
2023-03-05T12:28:01.766Z,444.00
2023-03-05T12:29:01.676Z,445.00
2023-03-05T12:30:01.646Z,445.00
2023-03-05T12:31:01.720Z,446.00
2023-03-05T12:32:01.782Z,448.00
2023-03-05T12:33:01.714Z,450.00
2023-03-05T12:34:02.010Z,448.00
2023-03-05T12:35:01.640Z,448.00
2023-03-05T12:36:01.664Z,447.00
2023-03-05T12:37:01.619Z,447.00
2023-03-05T12:38:02.938Z,448.00
2023-03-05T12:39:01.583Z,449.00
2023-03-05T12:40:01.554Z,449.00
2023-03-05T12:41:01.533Z,452.00
2023-03-05T12:42:01.554Z,451.00
2023-03-05T12:43:01.523Z,449.00
2023-03-05T12:44:01.548Z,453.00
2023-03-05T12:45:01.500Z,450.00
2023-03-05T12:46:01.441Z,450.00
2023-03-05T12:47:01.471Z,454.00
2023-03-05T12:48:01.475Z,452.00
2023-03-05T12:49:01.439Z,451.00
2023-03-05T12:50:01.421Z,451.00
2023-03-05T12:51:01.409Z,450.00
2023-03-05T12:52:01.359Z,448.00
2023-03-05T12:53:01.419Z,449.00
2023-03-05T12:54:01.348Z,450.00
2023-03-05T12:55:01.408Z,450.00
2023-03-05T12:56:01.341Z,452.00
2023-03-05T12:57:01.337Z,451.00
2023-03-05T12:58:01.285Z,450.00
2023-03-05T12:59:01.321Z,454.00
2023-03-05T13:00:01.281Z,455.00
2023-03-05T13:01:01.316Z,452.00
2023-03-05T13:02:01.295Z,453.00
2023-03-05T13:03:01.248Z,454.00
2023-03-05T13:04:01.266Z,453.00
2023-03-05T13:05:01.231Z,455.00
2023-03-05T13:06:01.224Z,456.00
2023-03-05T13:07:01.169Z,455.00
2023-03-05T13:08:01.187Z,456.00
2023-03-05T13:09:01.171Z,454.00
2023-03-05T13:10:01.181Z,453.00
2023-03-05T13:11:01.117Z,451.00
2023-03-05T13:12:01.184Z,450.00
2023-03-05T13:13:01.104Z,451.00
2023-03-05T13:14:01.094Z,452.00
2023-03-05T13:15:01.116Z,452.00
2023-03-05T13:16:01.135Z,452.00
2023-03-05T13:17:01.094Z,453.00
2023-03-05T13:18:01.056Z,454.00
2023-03-05T13:19:01.006Z,453.00
2023-03-05T13:20:01.052Z,453.00
2023-03-05T13:21:00.999Z,451.00
2023-03-05T13:22:00.967Z,448.00
2023-03-05T13:23:00.948Z,449.00
2023-03-05T13:24:00.949Z,450.00
2023-03-05T13:25:00.965Z,448.00
2023-03-05T13:26:01.028Z,448.00
2023-03-05T13:27:00.935Z,447.00
2023-03-05T13:28:00.909Z,450.00
2023-03-05T13:29:00.956Z,450.00
2023-03-05T13:30:00.885Z,451.00
2023-03-05T13:31:00.920Z,447.00
2023-03-05T13:32:00.954Z,445.00
2023-03-05T13:33:00.845Z,445.00
2023-03-05T13:34:00.794Z,445.00
2023-03-05T13:35:00.814Z,445.00
2023-03-05T13:36:00.861Z,446.00
2023-03-05T13:37:00.801Z,446.00
2023-03-05T13:38:00.775Z,447.00
2023-03-05T13:39:00.763Z,447.00
2023-03-05T13:40:00.776Z,447.00
2023-03-05T13:41:00.721Z,447.00
2023-03-05T13:42:00.728Z,446.00
2023-03-05T13:43:00.735Z,448.00
2023-03-05T13:44:00.818Z,448.00
2023-03-05T13:45:00.731Z,448.00
2023-03-05T13:46:00.729Z,450.00
2023-03-05T13:47:00.863Z,449.00
2023-03-05T13:48:00.673Z,452.00
2023-03-05T13:49:00.629Z,452.00
2023-03-05T13:50:00.675Z,451.00
